North Palm Springs, CA (92258)

1:45 AM PST on February 10, 2016 (GMT -0800)
Mission Lakes | | Change Station
CLOSE
Current Station
Personal Weather Station
Location: Desert Hot Springs, CA
Elevation: 1243 ft
Nearby Weather Stations

Elev 1243 ft 33.98 °N, 116.54 °W | Updated 18 seconds ago

Clear
Clear
59.5 °F
Feels Like 59.5 °F
N
0.0
Wind Variable Wind from West

Today
High -- | Low -- °F
--% Chance of Precip.
Yesterday
High -- | Low -- °F
Precip. -- in
Pressure 30.15 in
Visibility 10.0 miles
Clouds Clear
Dew Point 25 °F
Humidity 26%
Rainfall 0.00 in
Snow Depth Not available.
6:36 AM 5:25 PM
Waxing Crescent, 4% visible
METAR KPSP 100853Z 32005KT 10SM CLR 17/M03 A3016 RMK AO2 SLP210 T01721033 50001
Pressure 30.15 in
Visibility 10.0 miles
Clouds Clear
Dew Point 25 °F
Humidity 26%
Rainfall 0.00 in
Snow Depth Not available.
6:36 AM 5:25 PM
Waxing Crescent, 4% visible
METAR KPSP 100853Z 32005KT 10SM CLR 17/M03 A3016 RMK AO2 SLP210 T01721033 50001

10-Day Weather Forecast

Almanac

Astronomy

Feb. 10, 2016 Rise Set
Actual Time
Civil Twilight
Nautical Twilight
Astronomical Twilight
Moon
Length of Visible Light
Length of Day
Tomorrow will be .
, % of the Moon is Illuminated

Today's Extremes

State Highs State Lows

Community

WunderPhotos

Upload Photos

1,891,826 photos uploaded!

WunderBlog® & News

Nearby

Air Quality

  Air Quality AQ Index Pollutant
Not available.

Snow Depth

Station Depth Elevation

Earthquake Activity

City Distance Mag. Time & Date
Minimum magnitude displayed is 2.5.

Coastal Water Temperatures

Place Temperature

Stations

Nearby Weather Stations

Station Location Temp. Windchill Dew Point Humidity Wind Precip. Elev Updated Type
                   

Watches & Warnings

There are currently no watches in effect.